createdAt,value
2022-08-19T00:01:54.322Z,5.25
2022-08-19T00:04:24.084Z,5.22
2022-08-19T00:06:52.531Z,5.90
2022-08-19T00:09:23.082Z,6.13
2022-08-19T00:11:51.846Z,6.47
2022-08-19T00:14:21.632Z,7.70
2022-08-19T00:16:54.979Z,7.13
2022-08-19T00:19:24.313Z,7.15
2022-08-19T00:21:52.590Z,7.70
2022-08-19T00:24:20.876Z,8.85
2022-08-19T00:26:48.899Z,8.45
2022-08-19T00:29:20.594Z,8.32
2022-08-19T00:31:48.733Z,8.30
2022-08-19T00:34:19.933Z,9.13
2022-08-19T00:36:48.012Z,9.02
2022-08-19T00:39:17.338Z,9.57
2022-08-19T00:41:48.448Z,9.17
2022-08-19T00:44:20.928Z,9.45
2022-08-19T00:46:55.420Z,9.40
2022-08-19T00:49:33.594Z,10.20
2022-08-19T00:52:04.746Z,10.13
2022-08-19T00:54:33.961Z,10.45
2022-08-19T00:57:04.006Z,9.70
2022-08-19T00:59:56.104Z,9.82
2022-08-19T01:02:20.227Z,10.60
2022-08-19T01:04:50.307Z,10.40
2022-08-19T01:07:19.757Z,10.50
2022-08-19T01:09:48.326Z,11.00
2022-08-19T01:12:17.968Z,11.75
2022-08-19T01:14:47.321Z,11.77
2022-08-19T01:17:16.710Z,13.60
2022-08-19T01:19:47.618Z,12.48
2022-08-19T01:22:28.774Z,13.35
2022-08-19T01:25:00.994Z,13.27
2022-08-19T01:27:32.973Z,13.77
2022-08-19T01:30:13.839Z,14.75
2022-08-19T01:32:41.750Z,13.98
2022-08-19T01:35:10.100Z,13.98
2022-08-19T01:37:45.420Z,15.18
2022-08-19T01:40:14.889Z,14.52
2022-08-19T01:42:43.028Z,14.35
2022-08-19T01:45:11.850Z,14.85
2022-08-19T01:47:40.477Z,14.88
2022-08-19T01:50:11.908Z,14.90
2022-08-19T01:52:41.205Z,14.32
2022-08-19T01:55:12.541Z,14.73
2022-08-19T01:57:44.698Z,25.30
2022-08-19T02:00:16.923Z,14.35
2022-08-19T02:02:45.210Z,13.95
2022-08-19T02:05:14.260Z,13.35
2022-08-19T02:07:42.892Z,13.95
2022-08-19T02:10:14.298Z,13.57
2022-08-19T02:12:46.825Z,34.53
2022-08-19T02:15:15.808Z,12.30
2022-08-19T02:17:44.294Z,19.93
2022-08-19T02:20:14.002Z,12.13
2022-08-19T02:22:43.294Z,11.95
2022-08-19T02:25:11.721Z,11.25
2022-08-19T02:27:39.955Z,11.10
2022-08-19T02:30:14.114Z,10.57
2022-08-19T02:32:44.699Z,10.73
2022-08-19T02:35:14.070Z,10.32
2022-08-19T02:38:00.659Z,10.25
2022-08-19T02:40:28.654Z,9.98
2022-08-19T02:42:57.042Z,9.10
2022-08-19T02:45:26.268Z,9.90
2022-08-19T02:47:54.089Z,9.02
2022-08-19T02:50:22.554Z,9.68
2022-08-19T02:52:50.499Z,9.05
2022-08-19T02:55:18.557Z,8.77
2022-08-19T02:57:46.411Z,9.10
2022-08-19T03:00:15.058Z,8.63
2022-08-19T03:02:44.230Z,8.98
2022-08-19T03:05:12.211Z,9.20
2022-08-19T03:07:40.054Z,8.45
2022-08-19T03:10:09.234Z,8.37
2022-08-19T03:12:39.176Z,9.20
2022-08-19T03:15:09.830Z,9.57
2022-08-19T03:17:37.759Z,8.63
2022-08-19T03:20:07.983Z,8.82
2022-08-19T03:22:35.925Z,9.02
2022-08-19T03:25:03.861Z,9.25
2022-08-19T03:27:33.000Z,9.43
2022-08-19T03:30:03.044Z,8.88
2022-08-19T03:32:32.952Z,9.75
2022-08-19T03:35:01.372Z,8.93
2022-08-19T03:37:30.570Z,9.52
2022-08-19T03:39:58.429Z,9.27
2022-08-19T03:42:38.642Z,10.20
2022-08-19T03:45:15.732Z,9.00
2022-08-19T03:47:43.514Z,9.20
2022-08-19T03:50:11.744Z,10.10
2022-08-19T03:52:45.442Z,9.50
2022-08-19T03:55:15.387Z,9.70
2022-08-19T03:57:43.239Z,9.15
2022-08-19T04:00:13.506Z,10.07
2022-08-19T04:02:42.756Z,10.00
2022-08-19T04:05:11.064Z,8.93
2022-08-19T04:07:38.898Z,9.73
2022-08-19T04:10:10.637Z,10.70
2022-08-19T04:12:38.787Z,11.40
2022-08-19T04:15:07.476Z,10.40
2022-08-19T04:17:35.275Z,10.65
2022-08-19T04:20:07.064Z,10.45
2022-08-19T04:22:35.083Z,10.60
2022-08-19T04:25:03.150Z,10.15
2022-08-19T04:27:32.366Z,10.13
2022-08-19T04:30:00.181Z,10.27
2022-08-19T04:32:28.048Z,10.82
2022-08-19T04:35:02.828Z,12.50
2022-08-19T04:37:45.610Z,12.87
2022-08-19T04:40:31.365Z,11.63
2022-08-19T04:43:01.853Z,12.20
2022-08-19T04:45:29.661Z,11.93
2022-08-19T04:48:26.684Z,11.73
2022-08-19T04:50:58.416Z,12.57
2022-08-19T04:53:29.554Z,12.10
2022-08-19T04:55:58.241Z,12.83
2022-08-19T04:58:29.414Z,12.68
2022-08-19T05:00:57.301Z,12.50
2022-08-19T05:03:30.035Z,12.82
2022-08-19T05:05:59.307Z,12.67
2022-08-19T05:08:30.969Z,11.63
2022-08-19T05:10:59.450Z,11.85
2022-08-19T05:13:29.159Z,11.40
2022-08-19T05:15:58.656Z,11.90
2022-08-19T05:18:44.631Z,11.30
2022-08-19T05:21:33.275Z,11.95
2022-08-19T05:24:01.072Z,11.50
2022-08-19T05:26:29.121Z,12.18
2022-08-19T05:28:58.353Z,10.68
2022-08-19T05:31:26.604Z,10.93
2022-08-19T05:33:54.430Z,10.77
2022-08-19T05:36:22.275Z,11.23
2022-08-19T05:38:50.908Z,11.15
2022-08-19T05:41:19.086Z,12.80
2022-08-19T05:43:47.039Z,11.70
2022-08-19T05:46:28.029Z,11.63
2022-08-19T05:48:57.364Z,11.73
2022-08-19T05:51:28.949Z,12.40
2022-08-19T05:53:57.288Z,11.77
2022-08-19T05:56:25.622Z,13.23
2022-08-19T05:58:55.075Z,12.82
2022-08-19T06:01:24.485Z,12.83
2022-08-19T06:03:52.379Z,12.27
2022-08-19T06:06:20.655Z,11.73
2022-08-19T06:08:51.030Z,12.65
2022-08-19T06:11:22.748Z,13.40
2022-08-19T06:13:59.803Z,13.82
2022-08-19T06:16:32.685Z,12.60
2022-08-19T06:19:02.861Z,15.15
2022-08-19T06:21:32.418Z,13.18
2022-08-19T06:24:00.899Z,14.10
2022-08-19T06:26:29.307Z,14.97
2022-08-19T06:28:57.752Z,13.30
2022-08-19T06:31:27.789Z,14.35
2022-08-19T06:33:57.023Z,14.48
2022-08-19T06:36:31.058Z,14.40
2022-08-19T06:38:59.328Z,14.25
2022-08-19T06:41:28.021Z,14.38
2022-08-19T06:43:56.608Z,13.82
2022-08-19T06:46:25.008Z,17.98
2022-08-19T06:48:54.357Z,18.00
2022-08-19T06:51:25.134Z,16.88
2022-08-19T06:53:55.724Z,16.70
2022-08-19T06:56:31.605Z,17.30
2022-08-19T06:58:59.551Z,17.13
2022-08-19T07:01:27.513Z,16.93
2022-08-19T07:03:55.423Z,17.50
2022-08-19T07:06:43.700Z,17.00
2022-08-19T07:09:14.650Z,18.58
2022-08-19T07:11:47.757Z,20.23
2022-08-19T07:14:19.472Z,20.83
2022-08-19T07:16:48.642Z,22.38
2022-08-19T07:19:18.973Z,23.25
2022-08-19T07:21:50.918Z,25.20
2022-08-19T07:24:19.474Z,23.30
2022-08-19T07:26:51.862Z,23.00
2022-08-19T07:29:25.847Z,27.30
2022-08-19T07:32:00.141Z,26.73
2022-08-19T07:34:30.651Z,27.83
2022-08-19T07:37:00.444Z,29.08
2022-08-19T07:39:30.034Z,28.40
2022-08-19T07:41:59.046Z,28.83
2022-08-19T07:44:27.234Z,28.53
2022-08-19T07:46:57.910Z,29.73
2022-08-19T07:49:26.242Z,29.52
2022-08-19T07:51:56.088Z,28.98
2022-08-19T07:54:26.854Z,29.17
2022-08-19T07:56:54.809Z,28.48
2022-08-19T07:59:23.500Z,29.83
2022-08-19T08:01:53.482Z,30.10
2022-08-19T08:04:38.951Z,29.55
2022-08-19T08:07:25.666Z,29.70
2022-08-19T08:10:03.302Z,31.02
2022-08-19T08:12:35.363Z,30.25
2022-08-19T08:15:08.775Z,32.03
2022-08-19T08:17:49.821Z,32.88
2022-08-19T08:20:21.386Z,33.33
2022-08-19T08:23:07.328Z,32.50
2022-08-19T08:25:38.263Z,34.30
2022-08-19T08:28:06.643Z,33.58
2022-08-19T08:30:36.726Z,33.17
2022-08-19T08:33:05.129Z,35.92
2022-08-19T08:35:33.209Z,35.27
2022-08-19T08:38:01.552Z,35.30
2022-08-19T08:40:32.269Z,35.60
2022-08-19T08:43:11.278Z,35.63
2022-08-19T08:45:46.777Z,36.70
2022-08-19T08:48:26.538Z,35.85
2022-08-19T08:50:58.379Z,35.92
2022-08-19T08:53:31.103Z,36.17
2022-08-19T08:56:05.629Z,34.85
2022-08-19T08:58:48.746Z,36.40
2022-08-19T09:01:23.272Z,34.83
2022-08-19T09:03:51.704Z,36.55
2022-08-19T09:06:31.213Z,37.40
2022-08-19T09:09:12.260Z,40.90
2022-08-19T09:11:51.013Z,38.25
2022-08-19T09:14:49.863Z,37.85
2022-08-19T09:17:19.607Z,40.00
2022-08-19T09:19:53.914Z,40.80
2022-08-19T09:22:25.557Z,37.95
2022-08-19T09:24:54.755Z,37.95
2022-08-19T09:27:41.810Z,38.25
2022-08-19T09:30:15.884Z,37.55
2022-08-19T09:32:44.237Z,34.72
2022-08-19T09:35:13.629Z,35.33
2022-08-19T09:37:43.220Z,32.00
2022-08-19T09:40:12.358Z,32.30
2022-08-19T09:42:49.599Z,32.27
2022-08-19T09:45:22.705Z,32.65
2022-08-19T09:47:52.036Z,32.38
2022-08-19T09:50:25.551Z,32.65
2022-08-19T09:52:57.989Z,32.35
2022-08-19T09:55:31.631Z,34.20
2022-08-19T09:58:01.677Z,32.13
2022-08-19T10:00:31.813Z,33.10
2022-08-19T10:02:59.930Z,32.35
2022-08-19T10:05:48.460Z,30.00
2022-08-19T10:08:18.285Z,28.30
2022-08-19T10:10:49.273Z,29.07
2022-08-19T10:13:22.805Z,29.13
2022-08-19T10:15:52.528Z,28.95
2022-08-19T10:18:22.535Z,29.00
2022-08-19T10:20:52.696Z,28.23
2022-08-19T10:23:21.772Z,27.25
2022-08-19T10:25:50.502Z,27.95
2022-08-19T10:28:19.427Z,27.75
2022-08-19T10:30:48.674Z,28.70
2022-08-19T10:33:36.545Z,26.73
2022-08-19T10:36:08.879Z,25.60
2022-08-19T10:38:36.733Z,25.80
2022-08-19T10:41:12.919Z,25.33
2022-08-19T10:43:41.010Z,23.83
2022-08-19T10:46:13.956Z,23.33
2022-08-19T10:48:46.291Z,23.73
2022-08-19T10:51:32.033Z,23.40
2022-08-19T10:54:01.251Z,22.80
2022-08-19T10:56:47.567Z,24.35
2022-08-19T10:59:16.073Z,21.50
2022-08-19T11:01:47.109Z,25.10
2022-08-19T11:04:18.415Z,23.65
2022-08-19T11:06:48.295Z,21.70
2022-08-19T11:09:17.550Z,16.90
2022-08-19T11:11:45.635Z,16.77
2022-08-19T11:14:16.343Z,15.48
2022-08-19T11:16:44.799Z,13.75
2022-08-19T11:19:14.970Z,9.95
2022-08-19T11:21:46.464Z,8.52
2022-08-19T11:24:21.179Z,7.50
2022-08-19T11:26:51.449Z,5.90
2022-08-19T11:29:23.573Z,4.22
2022-08-19T11:31:51.896Z,4.43
2022-08-19T11:34:22.731Z,4.80
2022-08-19T11:36:52.942Z,4.50
2022-08-19T11:39:23.729Z,4.90
2022-08-19T11:41:52.690Z,4.93
2022-08-19T11:44:20.626Z,4.13
2022-08-19T11:46:48.639Z,3.88
2022-08-19T11:49:19.716Z,3.70
2022-08-19T11:51:56.128Z,3.63
2022-08-19T11:54:24.142Z,3.50
2022-08-19T11:56:51.933Z,2.72
2022-08-19T11:59:19.756Z,2.47
2022-08-19T12:01:48.566Z,2.20
2022-08-19T12:04:16.659Z,2.27
2022-08-19T12:06:46.471Z,2.47
2022-08-19T12:09:16.420Z,2.40
2022-08-19T12:11:44.274Z,2.40
2022-08-19T12:14:15.030Z,2.20
2022-08-19T12:16:44.743Z,2.40
2022-08-19T12:19:21.740Z,2.08
2022-08-19T12:21:51.097Z,2.05
2022-08-19T12:24:24.057Z,2.30
2022-08-19T12:26:53.992Z,2.17
2022-08-19T12:29:23.858Z,1.93
2022-08-19T12:31:52.211Z,2.27
2022-08-19T12:34:20.952Z,1.80
2022-08-19T12:36:50.078Z,1.70
2022-08-19T12:39:17.940Z,1.67
2022-08-19T12:41:54.164Z,1.60
2022-08-19T12:44:28.731Z,1.60
2022-08-19T12:46:58.243Z,2.73
2022-08-19T12:49:49.963Z,1.90
2022-08-19T12:52:16.646Z,2.20
2022-08-19T12:54:53.854Z,1.75
2022-08-19T12:57:32.263Z,2.38
2022-08-19T13:00:02.160Z,3.33
2022-08-19T13:02:33.091Z,2.42
2022-08-19T13:05:09.053Z,3.43
2022-08-19T13:07:37.091Z,3.42
2022-08-19T13:10:05.683Z,1.75
2022-08-19T13:12:35.039Z,3.07
2022-08-19T13:15:03.233Z,2.80
2022-08-19T13:17:39.366Z,2.30
2022-08-19T13:20:08.574Z,1.80
2022-08-19T13:22:37.248Z,3.25
2022-08-19T13:25:06.256Z,2.57
2022-08-19T13:27:35.899Z,2.30
2022-08-19T13:30:23.524Z,1.85
2022-08-19T13:33:09.090Z,2.50
2022-08-19T13:35:36.962Z,2.60
2022-08-19T13:38:05.803Z,3.63
2022-08-19T13:40:41.387Z,3.03
2022-08-19T13:43:12.443Z,2.80
2022-08-19T13:45:51.291Z,2.60
2022-08-19T13:48:19.789Z,2.50
2022-08-19T13:50:49.038Z,2.47
2022-08-19T13:53:17.925Z,2.80
2022-08-19T13:55:46.748Z,2.95
2022-08-19T13:58:16.355Z,3.00
2022-08-19T14:00:49.932Z,3.58
2022-08-19T14:03:20.653Z,3.70
2022-08-19T14:05:49.929Z,3.30
2022-08-19T14:08:19.808Z,3.67
2022-08-19T14:10:51.686Z,3.70
2022-08-19T14:13:24.727Z,3.83
2022-08-19T14:15:53.994Z,3.83
2022-08-19T14:18:22.733Z,4.10
2022-08-19T14:20:55.183Z,4.07
2022-08-19T14:23:23.871Z,3.80
2022-08-19T14:25:52.186Z,3.83
2022-08-19T14:28:23.259Z,3.80
2022-08-19T14:30:56.742Z,4.10
2022-08-19T14:33:28.313Z,3.70
2022-08-19T14:35:59.867Z,3.78
2022-08-19T14:38:31.591Z,3.72
2022-08-19T14:41:12.740Z,3.67
2022-08-19T14:43:42.866Z,4.10
2022-08-19T14:46:11.419Z,3.85
2022-08-19T14:48:41.527Z,3.50
2022-08-19T14:51:10.379Z,3.47
2022-08-19T14:53:38.939Z,3.83
2022-08-19T14:56:11.005Z,4.20
2022-08-19T14:58:42.501Z,3.72
2022-08-19T15:01:12.393Z,3.65
2022-08-19T15:03:42.108Z,3.70
2022-08-19T15:06:12.850Z,3.63
2022-08-19T15:08:42.474Z,3.80
2022-08-19T15:11:12.205Z,4.88
2022-08-19T15:13:42.530Z,4.57
2022-08-19T15:16:17.886Z,5.22
2022-08-19T15:18:47.454Z,5.07
2022-08-19T15:21:26.992Z,4.95
2022-08-19T15:23:56.987Z,9.73
2022-08-19T15:26:26.586Z,7.63
2022-08-19T15:28:55.853Z,13.60
2022-08-19T15:31:28.019Z,11.60
2022-08-19T15:33:58.161Z,8.00
2022-08-19T15:36:26.914Z,8.30
2022-08-19T15:38:55.461Z,9.77
2022-08-19T15:41:26.392Z,9.70
2022-08-19T15:43:57.942Z,9.18
2022-08-19T15:46:29.104Z,9.13
2022-08-19T15:49:00.316Z,10.65
2022-08-19T15:51:30.276Z,10.27
2022-08-19T15:53:59.303Z,10.10
2022-08-19T15:56:27.728Z,10.73
2022-08-19T15:59:15.026Z,10.40
2022-08-19T16:02:00.501Z,10.85
2022-08-19T16:04:45.665Z,11.18
2022-08-19T16:07:13.602Z,12.23
2022-08-19T16:09:41.413Z,10.63
2022-08-19T16:12:10.458Z,11.38
2022-08-19T16:14:41.026Z,10.57
2022-08-19T16:17:11.511Z,10.55
2022-08-19T16:19:40.456Z,11.15
2022-08-19T16:22:10.007Z,10.98
2022-08-19T16:24:38.300Z,11.07
2022-08-19T16:27:06.300Z,10.95
2022-08-19T16:29:39.141Z,10.98
2022-08-19T16:32:11.817Z,11.30
2022-08-19T16:34:41.655Z,9.73
2022-08-19T16:37:10.527Z,9.90
2022-08-19T16:39:38.801Z,11.20
2022-08-19T16:42:07.998Z,8.38
2022-08-19T16:44:36.370Z,8.77
2022-08-19T16:47:05.195Z,8.15
2022-08-19T16:49:52.184Z,9.25
2022-08-19T16:52:27.084Z,8.60
2022-08-19T16:54:55.484Z,8.68
2022-08-19T16:57:24.307Z,9.15
2022-08-19T16:59:52.747Z,8.65
2022-08-19T17:02:23.472Z,8.35
2022-08-19T17:04:57.726Z,9.00
2022-08-19T17:07:26.269Z,8.90
2022-08-19T17:09:54.126Z,8.75
2022-08-19T17:12:23.326Z,8.75
2022-08-19T17:14:58.719Z,8.02
2022-08-19T17:17:29.111Z,7.93
2022-08-19T17:20:00.275Z,7.30
2022-08-19T17:22:28.461Z,7.82
2022-08-19T17:24:57.948Z,7.60
2022-08-19T17:27:26.776Z,7.13
2022-08-19T17:30:00.152Z,7.70
2022-08-19T17:32:28.190Z,7.35
2022-08-19T17:34:56.018Z,7.50
2022-08-19T17:37:25.259Z,13.32
2022-08-19T17:39:53.138Z,6.95
2022-08-19T17:42:22.793Z,6.72
2022-08-19T17:44:51.169Z,8.57
2022-08-19T17:47:19.396Z,6.05
2022-08-19T17:49:47.615Z,5.90
2022-08-19T17:52:16.187Z,4.97
2022-08-19T17:54:45.741Z,4.70
2022-08-19T17:57:14.031Z,3.92
2022-08-19T17:59:41.963Z,4.45
2022-08-19T18:02:11.571Z,4.22
2022-08-19T18:04:40.086Z,3.90
2022-08-19T18:07:09.120Z,4.20
2022-08-19T18:09:42.333Z,4.85
2022-08-19T18:12:16.379Z,4.50
2022-08-19T18:14:44.550Z,4.33
2022-08-19T18:17:19.076Z,4.70
2022-08-19T18:19:48.506Z,5.50
2022-08-19T18:22:24.975Z,4.80
2022-08-19T18:24:53.048Z,4.63
2022-08-19T18:27:22.353Z,4.85
2022-08-19T18:29:50.321Z,5.10
2022-08-19T18:32:23.663Z,4.57
2022-08-19T18:34:52.016Z,5.20
2022-08-19T18:37:19.986Z,4.90
2022-08-19T18:40:05.397Z,4.83
2022-08-19T18:42:52.090Z,5.00
2022-08-19T18:45:37.718Z,5.20
2022-08-19T18:48:27.475Z,5.60
2022-08-19T18:50:57.436Z,7.00
2022-08-19T18:53:25.835Z,7.63
2022-08-19T18:55:54.931Z,7.50
2022-08-19T18:58:26.666Z,8.10
2022-08-19T19:00:56.764Z,8.38
2022-08-19T19:03:25.038Z,9.20
2022-08-19T19:05:53.160Z,10.07
2022-08-19T19:08:26.983Z,9.43
2022-08-19T19:10:56.338Z,10.77
2022-08-19T19:13:26.689Z,11.10
2022-08-19T19:15:55.403Z,11.43
2022-08-19T19:18:23.294Z,11.07
2022-08-19T19:20:51.127Z,11.80
2022-08-19T19:23:18.955Z,11.17
2022-08-19T19:25:50.550Z,12.02
2022-08-19T19:28:25.124Z,10.10
2022-08-19T19:30:57.579Z,12.10
2022-08-19T19:33:25.738Z,11.45
2022-08-19T19:35:53.546Z,11.63
2022-08-19T19:38:21.408Z,22.58
2022-08-19T19:40:49.191Z,11.45
2022-08-19T19:43:18.091Z,11.93
2022-08-19T19:45:46.937Z,12.02
2022-08-19T19:48:16.569Z,12.00
2022-08-19T19:50:45.773Z,12.63
2022-08-19T19:53:19.265Z,11.40
2022-08-19T19:55:47.196Z,12.30
2022-08-19T19:58:15.031Z,12.27
2022-08-19T20:00:42.901Z,12.20
2022-08-19T20:03:10.961Z,12.48
2022-08-19T20:05:40.169Z,12.05
2022-08-19T20:08:25.731Z,11.98
2022-08-19T20:10:53.546Z,11.70
2022-08-19T20:13:21.631Z,11.68
2022-08-19T20:15:49.528Z,11.70
2022-08-19T20:18:18.653Z,12.07
2022-08-19T20:20:49.977Z,11.25
2022-08-19T20:23:17.895Z,11.55
2022-08-19T20:25:45.762Z,11.38
2022-08-19T20:28:13.997Z,11.18
2022-08-19T20:30:48.116Z,12.15
2022-08-19T20:33:16.176Z,9.60
2022-08-19T20:35:45.381Z,8.70
2022-08-19T20:38:14.620Z,8.90
2022-08-19T20:40:42.836Z,9.77
2022-08-19T20:43:15.246Z,8.95
2022-08-19T20:45:43.100Z,9.07
2022-08-19T20:48:12.244Z,9.38
2022-08-19T20:50:40.658Z,9.85
2022-08-19T20:53:15.829Z,9.55
2022-08-19T20:55:45.678Z,10.13
2022-08-19T20:58:14.535Z,9.90
2022-08-19T21:00:45.523Z,10.17
2022-08-19T21:03:15.231Z,10.00
2022-08-19T21:05:43.156Z,9.65
2022-08-19T21:08:10.964Z,9.93
2022-08-19T21:10:42.394Z,9.40
2022-08-19T21:13:10.398Z,10.02
2022-08-19T21:15:40.617Z,9.57
2022-08-19T21:18:08.827Z,10.05
2022-08-19T21:20:36.712Z,10.75
2022-08-19T21:23:05.454Z,10.75
2022-08-19T21:25:33.358Z,10.93
2022-08-19T21:28:02.594Z,11.13
2022-08-19T21:30:30.540Z,11.13
2022-08-19T21:33:00.199Z,11.20
2022-08-19T21:35:28.498Z,11.13
2022-08-19T21:37:57.473Z,10.52
2022-08-19T21:40:25.987Z,10.80
2022-08-19T21:42:54.077Z,10.73
2022-08-19T21:45:23.843Z,11.30
2022-08-19T21:47:51.784Z,11.68
2022-08-19T21:50:19.926Z,12.45
2022-08-19T21:52:47.959Z,11.60
2022-08-19T21:55:17.084Z,11.37
2022-08-19T21:57:44.921Z,12.90
2022-08-19T22:00:17.647Z,12.80
2022-08-19T22:02:48.233Z,13.45
2022-08-19T22:05:16.946Z,13.15
2022-08-19T22:07:44.774Z,12.43
2022-08-19T22:10:12.588Z,13.50
2022-08-19T22:12:46.109Z,13.57
2022-08-19T22:15:21.405Z,13.77
2022-08-19T22:17:51.362Z,14.45
2022-08-19T22:20:22.078Z,16.33
2022-08-19T22:22:52.103Z,15.93
2022-08-19T22:25:24.423Z,15.70
2022-08-19T22:28:01.585Z,15.18
2022-08-19T22:30:33.724Z,15.77
2022-08-19T22:33:07.148Z,16.48
2022-08-19T22:35:37.635Z,17.42
2022-08-19T22:38:07.137Z,16.10
2022-08-19T22:40:39.327Z,19.63
2022-08-19T22:43:10.247Z,17.20
2022-08-19T22:45:39.133Z,16.30
2022-08-19T22:48:11.160Z,15.63
2022-08-19T22:50:40.701Z,15.90
2022-08-19T22:53:09.349Z,15.68
2022-08-19T22:55:39.255Z,15.40
2022-08-19T22:58:07.277Z,15.05
2022-08-19T23:00:35.913Z,14.18
2022-08-19T23:03:04.494Z,13.53
2022-08-19T23:05:33.728Z,12.68
2022-08-19T23:08:05.811Z,12.93
2022-08-19T23:10:33.663Z,12.95
2022-08-19T23:13:01.622Z,12.40
2022-08-19T23:15:32.415Z,12.40
2022-08-19T23:18:02.801Z,12.18
2022-08-19T23:20:38.592Z,12.13
2022-08-19T23:23:09.986Z,11.98
2022-08-19T23:25:38.933Z,12.10
2022-08-19T23:28:25.325Z,12.77
2022-08-19T23:30:54.840Z,12.68
2022-08-19T23:33:25.150Z,13.85
2022-08-19T23:35:56.643Z,13.95
2022-08-19T23:38:25.570Z,14.45
2022-08-19T23:40:55.310Z,13.75
2022-08-19T23:43:24.314Z,14.13
2022-08-19T23:45:53.591Z,13.65
2022-08-19T23:48:26.003Z,14.02
2022-08-19T23:50:58.543Z,13.27
2022-08-19T23:53:26.914Z,14.83
2022-08-19T23:55:55.436Z,14.90
2022-08-19T23:58:23.932Z,14.80
